createdAt,value
2023-01-20T00:01:09.545Z,2.30
2023-01-20T00:03:37.752Z,2.30
2023-01-20T00:06:05.866Z,2.30
2023-01-20T00:08:33.774Z,3.20
2023-01-20T00:11:06.936Z,2.30
2023-01-20T00:13:34.844Z,2.30
2023-01-20T00:16:03.906Z,2.30
2023-01-20T00:18:32.080Z,2.30
2023-01-20T00:21:04.254Z,2.30
2023-01-20T00:23:32.422Z,2.30
2023-01-20T00:26:00.558Z,2.20
2023-01-20T00:28:29.738Z,2.30
2023-01-20T00:30:57.679Z,2.30
2023-01-20T00:33:25.615Z,2.30
2023-01-20T00:35:53.430Z,2.30
2023-01-20T00:38:21.651Z,2.30
2023-01-20T00:40:55.070Z,2.00
2023-01-20T00:43:22.965Z,2.30
2023-01-20T00:45:52.222Z,2.30
2023-01-20T00:48:20.311Z,2.30
2023-01-20T00:50:48.169Z,2.30
2023-01-20T00:53:16.051Z,3.40
2023-01-20T00:55:43.999Z,2.30
2023-01-20T00:58:11.847Z,2.30
2023-01-20T01:00:39.716Z,2.30
2023-01-20T01:03:10.225Z,2.30
2023-01-20T01:05:38.599Z,2.30
2023-01-20T01:08:06.507Z,2.30
2023-01-20T01:10:34.362Z,2.30
2023-01-20T01:13:02.644Z,2.30
2023-01-20T01:15:30.748Z,2.30
2023-01-20T01:17:59.807Z,2.30
2023-01-20T01:20:29.927Z,2.70
2023-01-20T01:22:57.870Z,2.30
2023-01-20T01:25:25.868Z,2.30
2023-01-20T01:27:53.806Z,2.40
2023-01-20T01:30:21.866Z,2.30
2023-01-20T01:32:49.732Z,2.30
2023-01-20T01:35:17.623Z,2.30
2023-01-20T01:37:46.798Z,2.30
2023-01-20T01:40:14.722Z,2.30
2023-01-20T01:42:43.019Z,2.30
2023-01-20T01:45:25.935Z,2.20
2023-01-20T01:48:04.391Z,2.20
2023-01-20T01:50:38.911Z,2.20
2023-01-20T01:53:09.182Z,2.30
2023-01-20T01:55:40.642Z,2.30
2023-01-20T01:58:12.664Z,2.80
2023-01-20T02:00:41.025Z,2.30
2023-01-20T02:03:09.437Z,2.30
2023-01-20T02:05:38.344Z,2.30
2023-01-20T02:08:08.238Z,2.30
2023-01-20T02:10:36.224Z,2.20
2023-01-20T02:13:05.136Z,2.10
2023-01-20T02:15:40.622Z,2.20
2023-01-20T02:18:26.442Z,2.20
2023-01-20T02:21:36.741Z,1.90
2023-01-20T02:24:26.122Z,2.20
2023-01-20T02:27:03.304Z,2.20
2023-01-20T02:30:03.489Z,2.20
2023-01-20T02:32:44.753Z,2.20
2023-01-20T02:35:19.379Z,2.30
2023-01-20T02:37:51.170Z,2.30
2023-01-20T02:40:28.454Z,2.20
2023-01-20T02:43:05.943Z,2.20
2023-01-20T02:45:41.786Z,2.20
2023-01-20T02:48:22.062Z,2.40
2023-01-20T02:50:57.284Z,2.40
2023-01-20T02:53:26.896Z,2.20
2023-01-20T02:55:56.316Z,2.20
2023-01-20T02:58:32.711Z,2.20
2023-01-20T03:01:04.907Z,2.20
2023-01-20T03:03:36.510Z,1.50
2023-01-20T03:06:10.511Z,2.20
2023-01-20T03:08:40.610Z,2.00
2023-01-20T03:11:10.181Z,2.30
2023-01-20T03:13:42.758Z,2.20
2023-01-20T03:16:13.224Z,2.20
2023-01-20T03:18:42.678Z,2.60
2023-01-20T03:21:11.839Z,2.20
2023-01-20T03:23:43.915Z,2.20
2023-01-20T03:26:16.616Z,2.10
2023-01-20T03:28:45.599Z,2.10
2023-01-20T03:31:18.647Z,2.10
2023-01-20T03:33:49.478Z,2.10
2023-01-20T03:36:18.435Z,2.50
2023-01-20T03:38:47.149Z,2.10
2023-01-20T03:41:25.569Z,2.10
2023-01-20T03:44:00.352Z,2.20
2023-01-20T03:46:36.445Z,2.20
2023-01-20T03:49:13.468Z,2.20
2023-01-20T03:51:49.935Z,2.70
2023-01-20T03:54:23.931Z,2.20
2023-01-20T03:56:57.693Z,2.20
2023-01-20T03:59:26.719Z,2.20
2023-01-20T04:01:55.616Z,2.30
2023-01-20T04:04:24.996Z,2.30
2023-01-20T04:06:53.851Z,2.20
2023-01-20T04:09:25.635Z,2.30
2023-01-20T04:11:53.908Z,2.20
2023-01-20T04:14:21.914Z,2.20
2023-01-20T04:16:55.290Z,2.20
2023-01-20T04:19:25.427Z,2.30
2023-01-20T04:21:59.367Z,2.20
2023-01-20T04:24:32.975Z,2.30
2023-01-20T04:27:00.852Z,2.30
2023-01-20T04:29:28.720Z,2.30
2023-01-20T04:32:00.302Z,2.30
2023-01-20T04:34:30.087Z,2.30
2023-01-20T04:36:57.920Z,2.30
2023-01-20T04:39:25.840Z,2.30
2023-01-20T04:41:53.692Z,2.20
2023-01-20T04:44:21.568Z,2.30
2023-01-20T04:46:49.458Z,2.20
2023-01-20T04:49:17.325Z,2.20
2023-01-20T04:51:46.525Z,2.70
2023-01-20T04:54:14.351Z,2.30
2023-01-20T04:56:43.308Z,2.20
2023-01-20T04:59:11.289Z,2.10
2023-01-20T05:01:40.301Z,2.40
2023-01-20T05:04:08.227Z,2.20
2023-01-20T05:06:36.124Z,2.20
2023-01-20T05:09:05.431Z,2.20
2023-01-20T05:11:33.288Z,2.30
2023-01-20T05:14:01.133Z,2.60
2023-01-20T05:16:32.001Z,2.20
2023-01-20T05:18:59.887Z,2.20
2023-01-20T05:21:28.017Z,2.20
2023-01-20T05:23:56.106Z,2.10
2023-01-20T05:26:25.479Z,2.20
2023-01-20T05:28:53.700Z,2.50
2023-01-20T05:31:21.730Z,2.20
2023-01-20T05:33:49.627Z,2.10
2023-01-20T05:36:17.715Z,2.20
2023-01-20T05:38:45.543Z,2.30
2023-01-20T05:41:13.412Z,2.10
2023-01-20T05:43:42.606Z,1.80
2023-01-20T05:46:10.518Z,2.10
2023-01-20T05:48:38.498Z,2.10
2023-01-20T05:51:06.919Z,2.40
2023-01-20T05:53:34.832Z,2.10
2023-01-20T05:56:03.829Z,2.00
2023-01-20T05:58:32.363Z,2.00
2023-01-20T06:01:07.302Z,1.90
2023-01-20T06:03:35.703Z,2.00
2023-01-20T06:06:04.616Z,2.00
2023-01-20T06:08:32.537Z,2.00
2023-01-20T06:11:00.563Z,2.00
2023-01-20T06:13:28.453Z,2.00
2023-01-20T06:15:57.193Z,2.00
2023-01-20T06:18:26.428Z,2.00
2023-01-20T06:20:57.963Z,2.00
2023-01-20T06:23:26.201Z,2.00
2023-01-20T06:26:00.164Z,2.20
2023-01-20T06:28:28.398Z,1.90
2023-01-20T06:31:03.639Z,2.10
2023-01-20T06:33:33.459Z,1.90
2023-01-20T06:36:02.270Z,1.90
2023-01-20T06:38:31.843Z,1.90
2023-01-20T06:41:00.528Z,1.90
2023-01-20T06:43:30.022Z,1.90
2023-01-20T06:46:01.106Z,1.90
2023-01-20T06:48:29.302Z,2.00
2023-01-20T06:51:02.984Z,1.90
2023-01-20T06:53:30.923Z,1.90
2023-01-20T06:56:00.174Z,1.90
2023-01-20T06:58:30.057Z,1.90
2023-01-20T07:00:58.646Z,1.90
2023-01-20T07:03:26.558Z,1.90
2023-01-20T07:05:58.800Z,1.90
2023-01-20T07:08:28.003Z,1.90
2023-01-20T07:10:55.879Z,2.00
2023-01-20T07:13:23.989Z,1.90
2023-01-20T07:15:51.844Z,2.00
2023-01-20T07:18:19.654Z,1.90
2023-01-20T07:20:47.693Z,1.90
2023-01-20T07:23:15.535Z,1.90
2023-01-20T07:25:44.786Z,1.90
2023-01-20T07:28:12.570Z,1.90
2023-01-20T07:30:40.473Z,1.90
2023-01-20T07:33:08.343Z,1.90
2023-01-20T07:35:36.129Z,2.00
2023-01-20T07:38:04.508Z,1.90
2023-01-20T07:40:32.322Z,1.90
2023-01-20T07:43:04.096Z,1.90
2023-01-20T07:45:32.024Z,2.00
2023-01-20T07:47:59.834Z,1.90
2023-01-20T07:50:27.732Z,2.00
2023-01-20T07:52:55.692Z,2.00
2023-01-20T07:55:25.092Z,2.00
2023-01-20T07:57:53.172Z,2.00
2023-01-20T08:00:23.236Z,2.00
2023-01-20T08:02:51.250Z,2.00
2023-01-20T08:05:19.202Z,2.00
2023-01-20T08:07:51.446Z,2.10
2023-01-20T08:10:19.295Z,2.00
2023-01-20T08:12:47.130Z,2.00
2023-01-20T08:15:15.226Z,2.00
2023-01-20T08:17:44.561Z,2.00
2023-01-20T08:20:13.237Z,2.00
2023-01-20T08:22:41.077Z,2.10
2023-01-20T08:25:09.661Z,2.00
2023-01-20T08:27:37.544Z,2.10
2023-01-20T08:30:06.409Z,2.10
2023-01-20T08:32:34.253Z,2.10
2023-01-20T08:35:03.536Z,2.10
2023-01-20T08:37:31.351Z,2.10
2023-01-20T08:39:59.133Z,2.10
2023-01-20T08:42:27.001Z,2.20
2023-01-20T08:44:54.791Z,2.10
2023-01-20T08:47:23.856Z,2.10
2023-01-20T08:49:54.150Z,2.10
2023-01-20T08:52:23.332Z,2.10
2023-01-20T08:54:52.933Z,2.20
2023-01-20T08:57:20.884Z,2.20
2023-01-20T08:59:50.714Z,2.20
2023-01-20T09:02:18.554Z,2.20
2023-01-20T09:04:46.423Z,1.90
2023-01-20T09:07:14.377Z,2.20
2023-01-20T09:09:44.325Z,2.20
2023-01-20T09:12:12.202Z,2.20
2023-01-20T09:14:40.304Z,2.30
2023-01-20T09:17:08.126Z,2.30
2023-01-20T09:19:35.951Z,2.40
2023-01-20T09:22:04.778Z,2.40
2023-01-20T09:24:32.660Z,2.30
2023-01-20T09:27:01.775Z,2.30
2023-01-20T09:29:29.656Z,2.40
2023-01-20T09:31:58.769Z,2.30
2023-01-20T09:34:29.471Z,2.30
2023-01-20T09:37:19.531Z,2.40
2023-01-20T09:40:05.361Z,2.40
2023-01-20T09:43:04.915Z,2.40
2023-01-20T09:45:38.611Z,2.40
2023-01-20T09:48:28.039Z,2.40
2023-01-20T09:51:21.070Z,2.40
2023-01-20T09:53:57.340Z,2.40
2023-01-20T09:56:28.719Z,2.40
2023-01-20T09:59:03.032Z,2.40
2023-01-20T10:01:36.745Z,2.50
2023-01-20T10:04:10.621Z,2.40
2023-01-20T10:06:42.402Z,2.40
2023-01-20T10:09:17.913Z,2.50
2023-01-20T10:11:48.166Z,2.50
2023-01-20T10:14:22.817Z,2.50
2023-01-20T10:16:56.724Z,2.50
2023-01-20T10:19:32.637Z,2.50
2023-01-20T10:22:09.565Z,2.50
2023-01-20T10:24:41.402Z,2.50
2023-01-20T10:27:09.161Z,2.50
2023-01-20T10:29:40.443Z,2.50
2023-01-20T10:32:15.142Z,2.50
2023-01-20T10:34:46.626Z,2.50
2023-01-20T10:37:15.901Z,2.50
2023-01-20T10:39:48.890Z,2.50
2023-01-20T10:42:18.069Z,2.50
2023-01-20T10:44:49.938Z,2.60
2023-01-20T10:47:24.763Z,2.60
2023-01-20T10:50:29.249Z,2.60
2023-01-20T10:53:11.811Z,2.60
2023-01-20T10:55:56.527Z,2.70
2023-01-20T10:58:27.637Z,2.70
2023-01-20T11:00:59.145Z,2.70
2023-01-20T11:03:27.097Z,2.70
2023-01-20T11:05:54.983Z,2.70
2023-01-20T11:08:24.816Z,2.80
2023-01-20T11:10:56.222Z,2.80
2023-01-20T11:13:24.107Z,2.90
2023-01-20T11:15:56.326Z,2.90
2023-01-20T11:18:27.935Z,2.80
2023-01-20T11:20:59.316Z,2.70
2023-01-20T11:23:35.810Z,2.70
2023-01-20T11:26:10.079Z,2.70
2023-01-20T11:28:51.626Z,2.70
2023-01-20T11:31:20.319Z,2.70
2023-01-20T11:34:00.735Z,2.70
2023-01-20T11:36:29.255Z,3.10
2023-01-20T11:38:58.624Z,2.90
2023-01-20T11:41:28.545Z,2.90
2023-01-20T11:43:57.995Z,2.90
2023-01-20T11:46:29.782Z,3.00
2023-01-20T11:49:17.415Z,3.00
2023-01-20T11:51:51.424Z,3.10
2023-01-20T11:54:21.888Z,3.10
2023-01-20T11:56:54.447Z,4.00
2023-01-20T11:59:30.223Z,3.00
2023-01-20T12:02:01.835Z,2.90
2023-01-20T12:05:15.465Z,2.90
2023-01-20T12:07:46.957Z,3.00
2023-01-20T12:10:18.686Z,3.00
2023-01-20T12:12:51.836Z,3.00
2023-01-20T12:15:22.820Z,3.00
2023-01-20T12:17:57.862Z,3.00
2023-01-20T12:20:45.662Z,2.90
2023-01-20T12:23:22.078Z,2.80
2023-01-20T12:25:55.643Z,2.80
2023-01-20T12:28:28.133Z,2.80
2023-01-20T12:31:01.025Z,2.90
2023-01-20T12:33:31.505Z,2.90
2023-01-20T12:36:38.707Z,2.90
2023-01-20T12:39:36.362Z,2.90
2023-01-20T12:42:34.084Z,2.90
2023-01-20T12:45:11.209Z,3.00
2023-01-20T12:47:53.209Z,3.00
2023-01-20T12:50:31.049Z,3.10
2023-01-20T12:53:16.830Z,3.20
2023-01-20T12:55:55.813Z,3.20
2023-01-20T12:58:36.989Z,3.20
2023-01-20T13:01:27.435Z,3.20
2023-01-20T13:04:36.499Z,3.20
2023-01-20T13:07:21.992Z,3.30
2023-01-20T13:10:03.995Z,3.40
2023-01-20T13:12:44.700Z,3.40
2023-01-20T13:15:22.131Z,3.30
2023-01-20T13:18:08.474Z,3.30
2023-01-20T13:20:40.562Z,3.20
2023-01-20T13:23:11.826Z,3.10
2023-01-20T13:25:42.180Z,3.00
2023-01-20T13:28:19.050Z,2.90
2023-01-20T13:30:51.209Z,2.90
2023-01-20T13:33:27.556Z,2.80
2023-01-20T13:35:55.668Z,2.80
2023-01-20T13:38:25.358Z,2.70
2023-01-20T13:40:56.792Z,2.70
2023-01-20T13:43:36.617Z,2.70
2023-01-20T13:46:38.276Z,2.60
2023-01-20T13:49:24.029Z,2.60
2023-01-20T13:51:51.862Z,2.70
2023-01-20T13:54:49.636Z,2.70
2023-01-20T13:57:37.664Z,2.60
2023-01-20T14:00:16.041Z,2.60
2023-01-20T14:02:44.071Z,2.50
2023-01-20T14:05:32.801Z,2.50
2023-01-20T14:08:01.141Z,2.50
2023-01-20T14:10:29.427Z,2.50
2023-01-20T14:12:58.536Z,2.50
2023-01-20T14:15:34.020Z,2.50
2023-01-20T14:18:02.723Z,2.50
2023-01-20T14:20:31.355Z,2.50
2023-01-20T14:23:26.111Z,2.50
2023-01-20T14:26:03.131Z,2.40
2023-01-20T14:28:33.014Z,2.40
2023-01-20T14:31:22.567Z,2.50
2023-01-20T14:33:55.955Z,2.50
2023-01-20T14:36:25.760Z,2.50
2023-01-20T14:38:58.624Z,2.50
2023-01-20T14:41:29.635Z,2.50
2023-01-20T14:44:02.860Z,2.50
2023-01-20T14:46:41.366Z,2.50
2023-01-20T14:49:13.338Z,2.50
2023-01-20T14:51:41.344Z,2.40
2023-01-20T14:54:28.404Z,2.40
2023-01-20T14:56:56.517Z,2.60
2023-01-20T14:59:26.485Z,2.50
2023-01-20T15:01:56.344Z,2.40
2023-01-20T15:04:24.457Z,2.50
2023-01-20T15:06:54.239Z,2.50
2023-01-20T15:09:28.559Z,2.40
2023-01-20T15:12:33.792Z,2.50
2023-01-20T15:15:25.845Z,2.50
2023-01-20T15:18:19.942Z,2.40
2023-01-20T15:20:51.069Z,2.40
2023-01-20T15:23:22.600Z,2.40
2023-01-20T15:25:51.495Z,2.40
2023-01-20T15:28:25.660Z,2.40
2023-01-20T15:30:56.618Z,2.40
2023-01-20T15:33:25.106Z,2.40
2023-01-20T15:35:55.512Z,2.40
2023-01-20T15:38:23.433Z,2.20
2023-01-20T15:40:51.273Z,2.30
2023-01-20T15:43:20.140Z,2.40
2023-01-20T15:45:48.352Z,2.40
2023-01-20T15:48:18.803Z,2.40
2023-01-20T15:50:47.270Z,2.40
2023-01-20T15:53:15.866Z,2.40
2023-01-20T15:55:49.563Z,2.40
2023-01-20T15:58:28.627Z,2.40
2023-01-20T16:00:58.500Z,2.40
2023-01-20T16:03:28.468Z,2.40
2023-01-20T16:05:57.330Z,2.40
2023-01-20T16:08:32.902Z,2.40
2023-01-20T16:11:00.698Z,2.40
2023-01-20T16:13:28.504Z,2.40
2023-01-20T16:15:56.973Z,2.40
2023-01-20T16:18:24.805Z,2.40
2023-01-20T16:20:54.008Z,2.40
2023-01-20T16:23:21.819Z,2.40
2023-01-20T16:25:49.973Z,2.40
2023-01-20T16:28:21.270Z,2.40
2023-01-20T16:30:49.625Z,2.40
2023-01-20T16:33:20.065Z,2.40
2023-01-20T16:35:48.193Z,2.40
2023-01-20T16:38:19.514Z,2.30
2023-01-20T16:40:50.792Z,2.40
2023-01-20T16:43:19.174Z,2.30
2023-01-20T16:45:52.622Z,2.40
2023-01-20T16:48:20.905Z,2.30
2023-01-20T16:50:48.875Z,2.30
2023-01-20T16:53:19.089Z,2.30
2023-01-20T16:55:47.599Z,2.30
2023-01-20T16:58:16.097Z,2.30
2023-01-20T17:00:44.300Z,2.30
2023-01-20T17:03:12.096Z,1.60
2023-01-20T17:05:39.935Z,2.30
2023-01-20T17:08:07.847Z,2.30
2023-01-20T17:10:37.027Z,2.20
2023-01-20T17:13:04.800Z,2.30
2023-01-20T17:15:32.638Z,2.30
2023-01-20T17:18:00.440Z,2.30
2023-01-20T17:20:30.853Z,2.30
2023-01-20T17:22:58.607Z,2.30
2023-01-20T17:25:26.634Z,2.30
2023-01-20T17:27:55.769Z,2.30
2023-01-20T17:30:26.181Z,2.30
2023-01-20T17:32:54.239Z,2.30
2023-01-20T17:35:22.335Z,2.30
2023-01-20T17:37:50.130Z,2.30
2023-01-20T17:40:18.672Z,2.30
2023-01-20T17:42:46.799Z,2.30
2023-01-20T17:45:16.093Z,2.30
2023-01-20T17:47:43.870Z,2.40
2023-01-20T17:50:12.232Z,2.30
2023-01-20T17:52:40.343Z,2.30
2023-01-20T17:55:08.988Z,2.30
2023-01-20T17:57:36.792Z,2.40
2023-01-20T18:00:06.352Z,2.30
2023-01-20T18:02:35.494Z,2.30
2023-01-20T18:05:03.374Z,2.30
2023-01-20T18:07:31.161Z,2.30
2023-01-20T18:09:59.067Z,2.30
2023-01-20T18:12:27.198Z,2.30
2023-01-20T18:14:55.235Z,2.40
2023-01-20T18:17:23.022Z,2.40
2023-01-20T18:19:52.181Z,2.30
2023-01-20T18:22:19.973Z,2.40
2023-01-20T18:24:47.716Z,2.40
2023-01-20T18:27:15.503Z,2.40
2023-01-20T18:29:43.322Z,2.40
2023-01-20T18:32:11.115Z,2.40
2023-01-20T18:34:38.877Z,2.40
2023-01-20T18:37:07.977Z,2.40
2023-01-20T18:39:36.709Z,2.40
2023-01-20T18:42:04.681Z,2.40
2023-01-20T18:44:32.459Z,2.40
2023-01-20T18:47:00.248Z,2.40
2023-01-20T18:49:28.035Z,2.40
2023-01-20T18:51:55.859Z,2.50
2023-01-20T18:54:26.227Z,2.40
2023-01-20T18:56:54.106Z,2.40
2023-01-20T18:59:22.071Z,2.40
2023-01-20T19:01:50.832Z,2.40
2023-01-20T19:04:18.628Z,2.40
2023-01-20T19:06:46.554Z,2.40
2023-01-20T19:09:15.998Z,2.40
2023-01-20T19:11:45.179Z,2.80
2023-01-20T19:14:15.076Z,2.30
2023-01-20T19:16:45.429Z,2.40
2023-01-20T19:19:14.522Z,2.40
2023-01-20T19:21:42.765Z,2.40
2023-01-20T19:24:15.049Z,2.40
2023-01-20T19:26:42.710Z,2.40
2023-01-20T19:29:15.683Z,2.40
2023-01-20T19:31:43.576Z,2.40
2023-01-20T19:34:11.493Z,2.40
2023-01-20T19:36:39.357Z,2.40
2023-01-20T19:39:07.347Z,2.40
2023-01-20T19:41:36.125Z,2.30
2023-01-20T19:44:06.858Z,2.30
2023-01-20T19:46:38.721Z,2.30
2023-01-20T19:49:06.766Z,2.30
2023-01-20T19:51:36.299Z,2.30
2023-01-20T19:54:05.084Z,2.30
2023-01-20T19:56:34.558Z,2.40
2023-01-20T19:59:02.703Z,2.40
2023-01-20T20:01:32.181Z,2.30
2023-01-20T20:04:06.308Z,2.30
2023-01-20T20:06:35.233Z,2.30
2023-01-20T20:09:05.317Z,2.30
2023-01-20T20:11:34.406Z,2.30
2023-01-20T20:14:04.483Z,2.30
2023-01-20T20:16:35.092Z,2.30
2023-01-20T20:19:05.242Z,2.30
2023-01-20T20:21:33.100Z,2.30
2023-01-20T20:24:02.286Z,2.30
2023-01-20T20:26:32.409Z,2.30
2023-01-20T20:29:01.981Z,2.30
2023-01-20T20:31:30.400Z,2.30
2023-01-20T20:33:59.276Z,2.30
2023-01-20T20:36:30.863Z,2.20
2023-01-20T20:38:59.432Z,2.20
2023-01-20T20:41:29.282Z,2.20
2023-01-20T20:43:57.880Z,2.20
2023-01-20T20:46:26.277Z,2.20
2023-01-20T20:48:55.369Z,2.20
2023-01-20T20:51:24.128Z,2.20
2023-01-20T20:53:55.056Z,2.10
2023-01-20T20:56:24.439Z,2.10
2023-01-20T20:59:01.539Z,2.10
2023-01-20T21:01:31.230Z,2.10
2023-01-20T21:04:00.497Z,2.00
2023-01-20T21:06:28.774Z,2.00
2023-01-20T21:08:58.618Z,2.00
2023-01-20T21:11:26.530Z,2.30
2023-01-20T21:13:54.513Z,2.10
2023-01-20T21:16:23.245Z,2.10
2023-01-20T21:18:52.298Z,2.10
2023-01-20T21:21:20.919Z,2.10
2023-01-20T21:23:50.327Z,2.10
2023-01-20T21:26:19.922Z,2.10
2023-01-20T21:28:49.179Z,2.10
2023-01-20T21:31:19.055Z,2.10
2023-01-20T21:33:49.061Z,2.10
2023-01-20T21:36:16.895Z,2.10
2023-01-20T21:38:46.431Z,2.00
2023-01-20T21:41:16.257Z,2.00
2023-01-20T21:44:04.410Z,2.00
2023-01-20T21:46:36.505Z,2.00
2023-01-20T21:49:23.546Z,2.10
2023-01-20T21:52:08.945Z,2.10
2023-01-20T21:54:38.928Z,2.00
2023-01-20T21:57:06.774Z,2.10
2023-01-20T21:59:35.919Z,2.00
2023-01-20T22:02:15.830Z,2.00
2023-01-20T22:04:46.058Z,3.20
2023-01-20T22:07:14.281Z,2.10
2023-01-20T22:09:42.509Z,2.10
2023-01-20T22:12:13.886Z,2.10
2023-01-20T22:14:43.345Z,2.00
2023-01-20T22:17:12.760Z,2.10
2023-01-20T22:19:40.716Z,2.00
2023-01-20T22:22:08.949Z,2.00
2023-01-20T22:24:36.758Z,2.00
2023-01-20T22:27:04.687Z,2.00
2023-01-20T22:29:33.458Z,2.00
2023-01-20T22:32:04.083Z,2.00
2023-01-20T22:34:31.976Z,2.00
2023-01-20T22:37:00.672Z,1.90
2023-01-20T22:39:28.973Z,2.50
2023-01-20T22:41:56.847Z,1.90
2023-01-20T22:44:24.691Z,2.00
2023-01-20T22:46:52.531Z,2.00
2023-01-20T22:49:21.732Z,2.00
2023-01-20T22:51:49.691Z,1.90
2023-01-20T22:54:17.548Z,1.90
2023-01-20T22:56:45.347Z,2.00
2023-01-20T22:59:14.492Z,1.90
2023-01-20T23:01:42.444Z,1.90
2023-01-20T23:04:11.208Z,1.90
2023-01-20T23:06:40.325Z,1.90
2023-01-20T23:09:10.126Z,1.90
2023-01-20T23:11:39.846Z,1.90
2023-01-20T23:14:10.469Z,1.90
2023-01-20T23:16:38.556Z,1.90
2023-01-20T23:19:06.872Z,1.90
2023-01-20T23:21:34.748Z,1.90
2023-01-20T23:24:03.992Z,1.80
2023-01-20T23:26:32.942Z,1.80
2023-01-20T23:29:00.978Z,1.80
2023-01-20T23:31:33.137Z,1.80
2023-01-20T23:34:02.096Z,1.80
2023-01-20T23:36:30.067Z,1.80
2023-01-20T23:38:57.968Z,1.80
2023-01-20T23:41:27.278Z,1.80
2023-01-20T23:43:55.128Z,1.80
2023-01-20T23:46:22.988Z,1.90
2023-01-20T23:48:50.811Z,1.80
2023-01-20T23:51:18.806Z,1.90
2023-01-20T23:53:46.705Z,1.80
2023-01-20T23:56:16.380Z,1.90
2023-01-20T23:58:45.968Z,2.10
